createdAt,value
2019-02-16T00:00:18.782Z,3.54
2019-02-16T00:01:18.769Z,3.48
2019-02-16T00:02:18.745Z,3.50
2019-02-16T00:03:18.742Z,3.47
2019-02-16T00:04:18.759Z,3.42
2019-02-16T00:05:18.709Z,3.39
2019-02-16T00:06:18.701Z,3.35
2019-02-16T00:07:18.690Z,3.40
2019-02-16T00:08:18.679Z,3.40
2019-02-16T00:09:18.676Z,3.33
2019-02-16T00:10:18.690Z,3.31
2019-02-16T00:11:18.646Z,3.32
2019-02-16T00:12:18.632Z,3.31
2019-02-16T00:13:18.629Z,3.28
2019-02-16T00:14:18.618Z,3.32
2019-02-16T00:15:18.626Z,3.31
2019-02-16T00:16:18.590Z,3.36
2019-02-16T00:17:18.576Z,3.24
2019-02-16T00:18:18.566Z,3.20
2019-02-16T00:19:18.557Z,3.23
2019-02-16T00:20:18.566Z,3.24
2019-02-16T00:21:18.532Z,3.26
2019-02-16T00:22:18.535Z,3.18
2019-02-16T00:23:18.511Z,3.17
2019-02-16T00:24:18.512Z,3.21
2019-02-16T00:25:18.514Z,3.23
2019-02-16T00:26:18.482Z,3.20
2019-02-16T00:27:18.470Z,3.21
2019-02-16T00:28:18.454Z,3.18
2019-02-16T00:29:18.439Z,3.23
2019-02-16T00:30:18.454Z,3.10
2019-02-16T00:31:18.444Z,3.17
2019-02-16T00:32:18.422Z,3.10
2019-02-16T00:33:18.398Z,3.10
2019-02-16T00:34:18.388Z,3.06
2019-02-16T00:35:18.381Z,2.97
2019-02-16T00:36:18.390Z,2.97
2019-02-16T00:37:18.355Z,3.03
2019-02-16T00:38:18.344Z,2.99
2019-02-16T00:39:18.348Z,2.93
2019-02-16T00:40:18.336Z,3.00
2019-02-16T00:41:18.320Z,2.95
2019-02-16T00:42:18.300Z,2.92
2019-02-16T00:43:18.293Z,2.87
2019-02-16T00:44:18.288Z,2.95
2019-02-16T00:45:18.286Z,2.90
2019-02-16T00:46:18.254Z,2.90
2019-02-16T00:47:18.266Z,2.87
2019-02-16T00:48:18.240Z,2.85
2019-02-16T00:49:18.222Z,2.96
2019-02-16T00:50:18.220Z,2.87
2019-02-16T00:51:18.217Z,2.90
2019-02-16T00:52:18.207Z,2.89
2019-02-16T00:53:18.177Z,2.89
2019-02-16T00:54:18.165Z,2.78
2019-02-16T00:55:18.157Z,2.82
2019-02-16T00:56:18.167Z,2.75
2019-02-16T00:57:18.133Z,2.78
2019-02-16T00:58:18.127Z,2.78
2019-02-16T00:59:18.108Z,2.82
2019-02-16T01:00:18.103Z,2.81
2019-02-16T01:01:18.110Z,2.77
2019-02-16T01:02:18.074Z,2.72
2019-02-16T01:03:18.064Z,2.74
2019-02-16T01:04:18.052Z,2.69
2019-02-16T01:05:18.042Z,2.67
2019-02-16T01:06:18.044Z,2.69
2019-02-16T01:07:18.022Z,2.61
2019-02-16T01:08:18.006Z,2.63
2019-02-16T01:09:18.000Z,2.69
2019-02-16T01:10:17.988Z,2.60
2019-02-16T01:11:17.999Z,2.57
2019-02-16T01:12:17.974Z,2.54
2019-02-16T01:13:17.956Z,2.54
2019-02-16T01:14:17.946Z,2.53
2019-02-16T01:15:17.934Z,2.49
2019-02-16T01:16:17.946Z,2.46
2019-02-16T01:17:17.912Z,2.56
2019-02-16T01:18:17.903Z,2.56
2019-02-16T01:19:17.892Z,2.53
2019-02-16T01:20:17.871Z,2.60
2019-02-16T01:21:22.736Z,2.56
2019-02-16T01:22:18.855Z,2.54
2019-02-16T01:23:17.849Z,2.63
2019-02-16T01:24:17.831Z,2.66
2019-02-16T01:25:17.816Z,2.67
2019-02-16T01:26:17.820Z,2.54
2019-02-16T01:27:17.797Z,2.60
2019-02-16T01:28:17.786Z,2.57
2019-02-16T01:29:17.777Z,2.57
2019-02-16T01:30:17.768Z,2.57
2019-02-16T01:31:17.782Z,2.56
2019-02-16T01:32:17.747Z,2.45
2019-02-16T01:33:17.733Z,2.42
2019-02-16T01:34:17.720Z,2.48
2019-02-16T01:35:17.712Z,2.46
2019-02-16T01:36:17.733Z,2.52
2019-02-16T01:37:17.688Z,2.45
2019-02-16T01:38:17.672Z,2.56
2019-02-16T01:39:17.667Z,2.60
2019-02-16T01:40:17.657Z,2.60
2019-02-16T01:41:17.652Z,2.46
2019-02-16T01:42:17.656Z,2.45
2019-02-16T01:43:17.622Z,2.46
2019-02-16T01:44:17.609Z,2.45
2019-02-16T01:45:17.598Z,2.49
2019-02-16T01:46:17.587Z,2.43
2019-02-16T01:47:17.599Z,2.39
2019-02-16T01:48:17.563Z,2.45
2019-02-16T01:49:17.556Z,2.45
2019-02-16T01:50:17.543Z,2.34
2019-02-16T01:51:17.526Z,2.42
2019-02-16T01:52:17.534Z,2.34
2019-02-16T01:53:17.509Z,2.27
2019-02-16T01:54:17.495Z,2.39
2019-02-16T01:55:17.491Z,2.24
2019-02-16T01:56:17.477Z,2.28
2019-02-16T01:57:17.485Z,2.30
2019-02-16T01:58:17.453Z,2.34
2019-02-16T01:59:17.439Z,2.30
2019-02-16T02:00:17.426Z,2.35
2019-02-16T02:01:17.428Z,2.20
2019-02-16T02:02:17.421Z,2.20
2019-02-16T02:03:17.391Z,2.20
2019-02-16T02:04:17.393Z,2.18
2019-02-16T02:05:17.368Z,2.36
2019-02-16T02:06:17.361Z,2.31
2019-02-16T02:07:17.429Z,2.20
2019-02-16T02:08:17.351Z,2.20
2019-02-16T02:09:17.326Z,2.28
2019-02-16T02:10:17.324Z,2.28
2019-02-16T02:11:17.301Z,2.23
2019-02-16T02:12:17.309Z,2.27
2019-02-16T02:13:17.287Z,2.12
2019-02-16T02:14:17.273Z,2.17
2019-02-16T02:15:17.267Z,2.21
2019-02-16T02:16:17.247Z,2.14
2019-02-16T02:17:17.254Z,2.23
2019-02-16T02:18:17.232Z,2.14
2019-02-16T02:19:17.217Z,2.17
2019-02-16T02:20:17.208Z,2.17
2019-02-16T02:21:17.197Z,2.16
2019-02-16T02:22:17.242Z,2.23
2019-02-16T02:23:17.173Z,2.18
2019-02-16T02:24:17.162Z,2.27
2019-02-16T02:25:17.163Z,2.31
2019-02-16T02:26:17.138Z,2.31
2019-02-16T02:27:17.151Z,2.42
2019-02-16T02:28:17.114Z,2.41
2019-02-16T02:29:17.105Z,2.49
2019-02-16T02:30:17.094Z,2.48
2019-02-16T02:31:17.112Z,2.49
2019-02-16T02:32:17.084Z,2.46
2019-02-16T02:33:17.073Z,2.48
2019-02-16T02:34:17.048Z,2.54
2019-02-16T02:35:17.043Z,2.57
2019-02-16T02:36:17.036Z,2.56
2019-02-16T02:37:17.041Z,2.57
2019-02-16T02:38:17.007Z,2.57
2019-02-16T02:39:16.999Z,2.49
2019-02-16T02:40:16.984Z,2.53
2019-02-16T02:41:16.972Z,2.63
2019-02-16T02:42:16.975Z,2.63
2019-02-16T02:43:16.956Z,2.56
2019-02-16T02:44:16.942Z,2.59
2019-02-16T02:45:16.928Z,2.53
2019-02-16T02:46:16.915Z,2.66
2019-02-16T02:47:16.919Z,2.59
2019-02-16T02:48:16.901Z,2.61
2019-02-16T02:49:16.880Z,2.63
2019-02-16T02:50:16.882Z,2.74
2019-02-16T02:51:16.862Z,2.64
2019-02-16T02:52:16.899Z,2.67
2019-02-16T02:53:16.835Z,2.64
2019-02-16T02:54:16.865Z,2.69
2019-02-16T02:55:16.820Z,2.72
2019-02-16T02:56:16.818Z,2.69
2019-02-16T02:57:16.793Z,2.72
2019-02-16T02:58:16.795Z,2.63
2019-02-16T02:59:16.769Z,2.63
2019-02-16T03:00:16.759Z,2.64
2019-02-16T03:01:16.749Z,2.63
2019-02-16T03:02:16.743Z,2.63
2019-02-16T03:03:16.745Z,2.66
2019-02-16T03:04:16.715Z,2.67
2019-02-16T03:05:16.705Z,2.64
2019-02-16T03:06:16.748Z,2.61
2019-02-16T03:07:16.695Z,2.63
2019-02-16T03:08:16.700Z,2.64
2019-02-16T03:09:16.659Z,2.56
2019-02-16T03:10:16.651Z,2.56
2019-02-16T03:11:16.640Z,2.46
2019-02-16T03:12:16.625Z,2.43
2019-02-16T03:13:16.627Z,2.52
2019-02-16T03:14:16.602Z,2.46
2019-02-16T03:15:16.589Z,2.42
2019-02-16T03:16:16.580Z,2.28
2019-02-16T03:17:16.570Z,2.18
2019-02-16T03:18:16.579Z,2.25
2019-02-16T03:19:16.557Z,2.25
2019-02-16T03:20:16.534Z,2.18
2019-02-16T03:21:16.528Z,2.18
2019-02-16T03:22:16.508Z,2.23
2019-02-16T03:23:16.527Z,2.16
2019-02-16T03:24:16.495Z,2.14
2019-02-16T03:25:16.476Z,2.10
2019-02-16T03:26:16.469Z,2.17
2019-02-16T03:27:16.455Z,2.07
2019-02-16T03:28:16.459Z,2.09
2019-02-16T03:29:16.436Z,2.12
2019-02-16T03:30:16.431Z,2.02
2019-02-16T03:31:16.419Z,2.00
2019-02-16T03:32:16.410Z,1.93
2019-02-16T03:33:16.420Z,1.95
2019-02-16T03:34:16.389Z,2.00
2019-02-16T03:35:16.367Z,1.99
2019-02-16T03:36:16.361Z,1.99
2019-02-16T03:37:16.349Z,1.95
2019-02-16T03:38:16.361Z,2.03
2019-02-16T03:39:16.322Z,1.98
2019-02-16T03:40:16.313Z,1.99
2019-02-16T03:41:16.303Z,1.95
2019-02-16T03:42:16.289Z,1.98
2019-02-16T03:43:16.314Z,2.02
2019-02-16T03:44:16.264Z,1.98
2019-02-16T03:45:16.258Z,2.00
2019-02-16T03:46:16.241Z,1.95
2019-02-16T03:47:16.233Z,2.00
2019-02-16T03:48:16.233Z,1.86
2019-02-16T03:49:16.225Z,1.91
2019-02-16T03:50:16.204Z,1.84
2019-02-16T03:51:16.193Z,1.83
2019-02-16T03:52:16.179Z,1.81
2019-02-16T03:53:16.173Z,1.84
2019-02-16T03:54:16.170Z,1.83
2019-02-16T03:55:16.146Z,1.79
2019-02-16T03:56:16.131Z,1.88
2019-02-16T03:57:16.126Z,1.95
2019-02-16T03:58:16.116Z,1.79
2019-02-16T03:59:16.118Z,1.80
2019-02-16T04:00:16.090Z,1.79
2019-02-16T04:01:16.081Z,1.72
2019-02-16T04:02:16.068Z,1.81
2019-02-16T04:03:16.052Z,1.79
2019-02-16T04:04:16.058Z,1.81
2019-02-16T04:05:16.042Z,1.81
2019-02-16T04:06:16.031Z,1.77
2019-02-16T04:07:16.008Z,1.70
2019-02-16T04:08:16.003Z,1.69
2019-02-16T04:09:16.026Z,1.66
2019-02-16T04:10:15.986Z,1.63
2019-02-16T04:11:15.977Z,1.55
2019-02-16T04:12:15.957Z,1.58
2019-02-16T04:13:15.947Z,1.54
2019-02-16T04:14:15.959Z,1.66
2019-02-16T04:15:15.937Z,1.59
2019-02-16T04:16:15.915Z,1.58
2019-02-16T04:17:15.900Z,1.58
2019-02-16T04:18:15.892Z,1.65
2019-02-16T04:19:15.882Z,1.54
2019-02-16T04:20:15.881Z,1.59
2019-02-16T04:21:15.855Z,1.51
2019-02-16T04:22:24.138Z,1.55
2019-02-16T04:23:16.835Z,1.58
2019-02-16T04:24:15.822Z,1.50
2019-02-16T04:25:15.830Z,1.59
2019-02-16T04:26:15.809Z,1.45
2019-02-16T04:27:15.790Z,1.50
2019-02-16T04:28:15.809Z,1.50
2019-02-16T04:29:15.770Z,1.34
2019-02-16T04:30:15.777Z,1.36
2019-02-16T04:31:15.748Z,1.37
2019-02-16T04:32:15.731Z,1.37
2019-02-16T04:33:15.780Z,1.41
2019-02-16T04:34:15.725Z,1.34
2019-02-16T04:35:15.716Z,1.34
2019-02-16T04:36:15.689Z,1.44
2019-02-16T04:37:15.674Z,1.40
2019-02-16T04:38:15.670Z,1.36
2019-02-16T04:39:15.659Z,1.42
2019-02-16T04:40:15.670Z,1.42
2019-02-16T04:41:15.632Z,1.36
2019-02-16T04:42:15.619Z,1.44
2019-02-16T04:43:15.621Z,1.40
2019-02-16T04:44:15.602Z,1.37
2019-02-16T04:45:15.613Z,1.32
2019-02-16T04:46:15.579Z,1.29
2019-02-16T04:47:15.565Z,1.41
2019-02-16T04:48:15.553Z,1.37
2019-02-16T04:49:15.555Z,1.44
2019-02-16T04:50:15.554Z,1.44
2019-02-16T04:51:15.527Z,1.40
2019-02-16T04:52:15.520Z,1.48
2019-02-16T04:53:15.557Z,1.34
2019-02-16T04:54:15.490Z,1.34
2019-02-16T04:55:15.512Z,1.34
2019-02-16T04:56:15.473Z,1.34
2019-02-16T04:57:15.459Z,1.44
2019-02-16T04:58:15.445Z,1.44
2019-02-16T04:59:15.435Z,1.44
2019-02-16T05:00:15.422Z,1.36
2019-02-16T05:01:15.437Z,1.34
2019-02-16T05:02:15.407Z,1.29
2019-02-16T05:03:15.407Z,1.32
2019-02-16T05:04:15.381Z,1.33
2019-02-16T05:05:15.370Z,1.36
2019-02-16T05:06:15.456Z,1.26
2019-02-16T05:07:15.345Z,1.26
2019-02-16T05:08:15.335Z,1.14
2019-02-16T05:09:15.326Z,1.27
2019-02-16T05:10:15.325Z,1.29
2019-02-16T05:11:15.321Z,1.27
2019-02-16T05:12:15.294Z,1.27
2019-02-16T05:13:15.280Z,1.15
2019-02-16T05:14:15.278Z,1.20
2019-02-16T05:15:15.267Z,1.18
2019-02-16T05:16:15.264Z,1.08
2019-02-16T05:17:15.233Z,1.12
2019-02-16T05:18:15.231Z,1.05
2019-02-16T05:19:15.213Z,1.05
2019-02-16T05:20:15.201Z,1.05
2019-02-16T05:21:15.212Z,1.05
2019-02-16T05:22:15.179Z,1.05
2019-02-16T05:23:15.167Z,1.05
2019-02-16T05:24:15.153Z,1.00
2019-02-16T05:25:15.157Z,1.06
2019-02-16T05:26:15.164Z,1.08
2019-02-16T05:27:15.128Z,1.09
2019-02-16T05:28:15.115Z,1.05
2019-02-16T05:29:15.104Z,1.08
2019-02-16T05:30:15.089Z,1.09
2019-02-16T05:31:15.097Z,1.08
2019-02-16T05:32:15.082Z,1.06
2019-02-16T05:33:15.055Z,1.08
2019-02-16T05:34:15.051Z,1.08
2019-02-16T05:35:15.040Z,1.05
2019-02-16T05:36:15.053Z,1.05
2019-02-16T05:37:15.023Z,1.05
2019-02-16T05:38:15.021Z,1.02
2019-02-16T05:39:14.990Z,1.00
2019-02-16T05:40:14.980Z,1.05
2019-02-16T05:41:14.987Z,0.96
2019-02-16T05:42:14.985Z,1.00
2019-02-16T05:43:14.952Z,1.00
2019-02-16T05:44:14.938Z,1.05
2019-02-16T05:45:14.928Z,0.90
2019-02-16T05:46:14.913Z,0.91
2019-02-16T05:47:14.931Z,0.90
2019-02-16T05:48:14.895Z,0.87
2019-02-16T05:49:14.893Z,0.86
2019-02-16T05:50:14.867Z,0.87
2019-02-16T05:51:14.859Z,0.90
2019-02-16T05:52:14.879Z,0.84
2019-02-16T05:53:14.834Z,0.80
2019-02-16T05:54:14.833Z,0.78
2019-02-16T05:55:14.815Z,0.87
2019-02-16T05:56:14.805Z,0.75
2019-02-16T05:57:14.960Z,0.70
2019-02-16T05:58:14.785Z,0.69
2019-02-16T05:59:14.769Z,0.78
2019-02-16T06:00:14.770Z,0.69
2019-02-16T06:01:14.751Z,0.68
2019-02-16T06:02:14.773Z,0.70
2019-02-16T06:03:14.728Z,0.61
2019-02-16T06:04:14.727Z,0.65
2019-02-16T06:05:14.703Z,0.68
2019-02-16T06:06:14.699Z,0.53
2019-02-16T06:07:14.715Z,0.51
2019-02-16T06:08:14.679Z,0.62
2019-02-16T06:09:14.658Z,0.65
2019-02-16T06:10:14.657Z,0.70
2019-02-16T06:11:14.641Z,0.69
2019-02-16T06:12:14.648Z,0.69
2019-02-16T06:13:14.613Z,0.66
2019-02-16T06:14:14.601Z,0.69
2019-02-16T06:15:14.595Z,0.72
2019-02-16T06:16:14.581Z,0.75
2019-02-16T06:17:14.617Z,0.76
2019-02-16T06:18:14.580Z,0.72
2019-02-16T06:19:14.550Z,0.69
2019-02-16T06:20:14.560Z,0.80
2019-02-16T06:21:14.531Z,0.70
2019-02-16T06:22:14.515Z,0.75
2019-02-16T06:23:14.522Z,0.72
2019-02-16T06:24:14.490Z,0.72
2019-02-16T06:25:14.486Z,0.73
2019-02-16T06:26:14.472Z,0.75
2019-02-16T06:27:14.468Z,0.76
2019-02-16T06:28:14.466Z,0.76
2019-02-16T06:29:14.446Z,0.70
2019-02-16T06:30:14.432Z,0.83
2019-02-16T06:31:14.421Z,0.86
2019-02-16T06:32:14.401Z,0.88
2019-02-16T06:33:14.412Z,0.78
2019-02-16T06:34:14.384Z,0.79
2019-02-16T06:35:14.382Z,0.84
2019-02-16T06:36:14.359Z,0.76
2019-02-16T06:37:14.345Z,0.79
2019-02-16T06:38:14.360Z,0.88
2019-02-16T06:39:14.335Z,0.87
2019-02-16T06:40:14.336Z,0.90
2019-02-16T06:41:14.316Z,0.90
2019-02-16T06:42:14.295Z,0.90
2019-02-16T06:43:14.302Z,0.88
2019-02-16T06:44:14.270Z,0.87
2019-02-16T06:45:14.264Z,0.83
2019-02-16T06:46:14.255Z,0.79
2019-02-16T06:47:14.248Z,0.76
2019-02-16T06:48:14.239Z,0.76
2019-02-16T06:49:14.219Z,0.79
2019-02-16T06:50:14.204Z,0.80
2019-02-16T06:51:14.990Z,0.79
2019-02-16T06:52:14.189Z,0.76
2019-02-16T06:53:14.204Z,0.83
2019-02-16T06:54:14.159Z,0.79
2019-02-16T06:55:14.145Z,0.83
2019-02-16T06:56:14.148Z,0.91
2019-02-16T06:57:14.131Z,0.91
2019-02-16T06:58:14.131Z,0.83
2019-02-16T06:59:14.128Z,0.80
2019-02-16T07:00:14.098Z,0.80
2019-02-16T07:01:14.082Z,0.83
2019-02-16T07:02:14.076Z,0.83
2019-02-16T07:03:14.063Z,0.76
2019-02-16T07:04:14.064Z,0.78
2019-02-16T07:05:14.038Z,0.76
2019-02-16T07:06:14.029Z,0.84
2019-02-16T07:07:14.018Z,0.86
2019-02-16T07:08:14.011Z,0.78
2019-02-16T07:09:14.016Z,0.91
2019-02-16T07:10:13.994Z,0.86
2019-02-16T07:11:13.976Z,0.91
2019-02-16T07:12:13.962Z,0.91
2019-02-16T07:13:13.948Z,1.02
2019-02-16T07:14:14.030Z,1.08
2019-02-16T07:15:13.942Z,1.16
2019-02-16T07:16:13.925Z,1.14
2019-02-16T07:17:13.905Z,1.16
2019-02-16T07:18:13.896Z,1.22
2019-02-16T07:19:13.902Z,1.26
2019-02-16T07:20:13.876Z,1.27
2019-02-16T07:21:13.869Z,1.36
2019-02-16T07:22:13.848Z,1.36
2019-02-16T07:23:22.280Z,1.42
2019-02-16T07:24:14.848Z,1.40
2019-02-16T07:25:13.821Z,1.50
2019-02-16T07:26:13.818Z,1.54
2019-02-16T07:27:13.794Z,1.58
2019-02-16T07:28:13.802Z,1.51
2019-02-16T07:29:13.789Z,1.63
2019-02-16T07:30:13.763Z,1.68
2019-02-16T07:31:15.802Z,1.73
2019-02-16T07:32:13.744Z,1.73
2019-02-16T07:33:13.732Z,1.76
2019-02-16T07:34:13.759Z,1.84
2019-02-16T07:35:13.745Z,1.77
2019-02-16T07:36:13.692Z,1.81
2019-02-16T07:37:13.684Z,1.87
2019-02-16T07:38:13.742Z,1.87
2019-02-16T07:39:14.730Z,1.98
2019-02-16T07:40:13.674Z,1.99
2019-02-16T07:41:13.643Z,2.10
2019-02-16T07:42:13.630Z,2.14
2019-02-16T07:43:13.620Z,2.12
2019-02-16T07:44:13.610Z,2.16
2019-02-16T07:45:13.628Z,2.28
2019-02-16T07:46:13.586Z,2.31
2019-02-16T07:47:13.572Z,2.31
2019-02-16T07:48:13.564Z,2.36
2019-02-16T07:49:13.554Z,2.36
2019-02-16T07:50:13.557Z,2.43
2019-02-16T07:51:13.566Z,2.56
2019-02-16T07:52:13.522Z,2.63
2019-02-16T07:53:13.506Z,2.72
2019-02-16T07:54:13.505Z,2.74
2019-02-16T07:55:13.506Z,2.87
2019-02-16T07:56:13.479Z,3.06
2019-02-16T07:57:13.466Z,3.18
2019-02-16T07:58:13.470Z,3.28
2019-02-16T07:59:13.445Z,3.40
2019-02-16T08:00:13.449Z,3.55
2019-02-16T08:01:13.419Z,3.72
2019-02-16T08:02:13.418Z,3.73
2019-02-16T08:03:13.407Z,3.83
2019-02-16T08:04:13.395Z,3.88
2019-02-16T08:05:13.398Z,4.05
2019-02-16T08:06:13.369Z,4.04
2019-02-16T08:07:13.356Z,4.02
2019-02-16T08:08:13.338Z,4.18
2019-02-16T08:09:14.192Z,4.29
2019-02-16T08:10:13.332Z,4.32
2019-02-16T08:11:13.474Z,4.40
2019-02-16T08:12:13.296Z,4.41
2019-02-16T08:13:13.284Z,4.55
2019-02-16T08:14:13.273Z,4.51
2019-02-16T08:15:13.299Z,4.63
2019-02-16T08:16:13.251Z,4.63
2019-02-16T08:17:14.197Z,4.63
2019-02-16T08:18:13.232Z,4.69
2019-02-16T08:19:13.220Z,4.75
2019-02-16T08:20:13.241Z,4.75
2019-02-16T08:21:13.197Z,4.84
2019-02-16T08:22:13.185Z,4.94
2019-02-16T08:23:13.181Z,5.09
2019-02-16T08:24:13.159Z,5.12
2019-02-16T08:25:13.156Z,5.12
2019-02-16T08:26:13.178Z,5.18
2019-02-16T08:27:13.128Z,5.25
2019-02-16T08:28:13.119Z,5.27
2019-02-16T08:29:13.202Z,5.39
2019-02-16T08:30:13.099Z,5.48
2019-02-16T08:31:13.095Z,5.63
2019-02-16T08:32:13.073Z,5.63
2019-02-16T08:33:13.062Z,5.72
2019-02-16T08:34:13.092Z,5.76
2019-02-16T08:35:13.040Z,5.83
2019-02-16T08:36:13.046Z,5.85
2019-02-16T08:37:13.042Z,5.94
2019-02-16T08:38:13.005Z,6.06
2019-02-16T08:39:12.994Z,6.11
2019-02-16T08:40:12.988Z,6.19
2019-02-16T08:41:13.011Z,6.21
2019-02-16T08:42:12.964Z,6.28
2019-02-16T08:43:12.949Z,6.40
2019-02-16T08:44:12.937Z,6.41
2019-02-16T08:45:12.931Z,6.48
2019-02-16T08:46:12.948Z,6.56
2019-02-16T08:47:12.905Z,6.59
2019-02-16T08:48:12.933Z,6.66
2019-02-16T08:49:12.885Z,6.71
2019-02-16T08:50:12.872Z,6.69
2019-02-16T08:51:12.890Z,6.74
2019-02-16T08:52:12.853Z,6.74
2019-02-16T08:53:12.844Z,6.81
2019-02-16T08:54:12.843Z,6.89
2019-02-16T08:55:12.811Z,6.95
2019-02-16T08:56:12.845Z,6.99
2019-02-16T08:57:12.792Z,7.03
2019-02-16T08:58:12.778Z,7.07
2019-02-16T08:59:12.774Z,7.13
2019-02-16T09:00:12.779Z,7.21
2019-02-16T09:01:12.782Z,7.21
2019-02-16T09:02:12.843Z,7.16
2019-02-16T09:03:12.729Z,7.34
2019-02-16T09:04:12.715Z,7.30
2019-02-16T09:05:12.705Z,7.31
2019-02-16T09:06:12.691Z,7.49
2019-02-16T09:07:12.735Z,7.35
2019-02-16T09:08:12.670Z,7.52
2019-02-16T09:09:12.660Z,7.58
2019-02-16T09:10:12.654Z,7.63
2019-02-16T09:11:12.647Z,7.61
2019-02-16T09:12:12.652Z,7.72
2019-02-16T09:13:12.617Z,7.75
2019-02-16T09:14:12.603Z,7.79
2019-02-16T09:15:12.603Z,7.90
2019-02-16T09:16:12.586Z,7.92
2019-02-16T09:17:13.413Z,8.02
2019-02-16T09:18:12.556Z,8.10
2019-02-16T09:19:12.551Z,8.15
2019-02-16T09:20:12.532Z,8.04
2019-02-16T09:21:14.698Z,8.07
2019-02-16T09:22:13.612Z,8.19
2019-02-16T09:23:12.528Z,8.20
2019-02-16T09:24:12.495Z,8.26
2019-02-16T09:25:12.479Z,8.28
2019-02-16T09:26:12.471Z,8.37
2019-02-16T09:27:12.471Z,8.34
2019-02-16T09:28:12.462Z,8.45
2019-02-16T09:29:12.435Z,8.41
2019-02-16T09:30:12.425Z,8.50
2019-02-16T09:31:12.407Z,8.50
2019-02-16T09:32:13.227Z,8.55
2019-02-16T09:33:12.390Z,8.62
2019-02-16T09:34:12.387Z,8.68
2019-02-16T09:35:12.368Z,8.70
2019-02-16T09:36:12.358Z,8.76
2019-02-16T09:37:12.371Z,8.73
2019-02-16T09:38:12.331Z,8.84
2019-02-16T09:39:12.328Z,8.81
2019-02-16T09:40:12.306Z,8.94
2019-02-16T09:41:12.309Z,8.96
2019-02-16T09:42:12.307Z,8.98
2019-02-16T09:43:12.279Z,9.11
2019-02-16T09:44:12.267Z,9.18
2019-02-16T09:45:12.256Z,9.28
2019-02-16T09:46:12.244Z,9.35
2019-02-16T09:47:12.248Z,9.50
2019-02-16T09:48:12.225Z,9.42
2019-02-16T09:49:12.215Z,9.54
2019-02-16T09:50:12.245Z,9.71
2019-02-16T09:51:12.191Z,9.94
2019-02-16T09:52:12.208Z,10.11
2019-02-16T09:53:12.164Z,10.42
2019-02-16T09:54:12.153Z,10.63
2019-02-16T09:55:12.394Z,10.94
2019-02-16T09:56:12.135Z,11.22
2019-02-16T09:57:12.334Z,11.47
2019-02-16T09:58:12.137Z,11.62
2019-02-16T09:59:12.215Z,11.64
2019-02-16T10:00:13.939Z,11.67
2019-02-16T10:01:12.141Z,11.76
2019-02-16T10:02:12.062Z,11.96
2019-02-16T10:03:12.085Z,12.12
2019-02-16T10:04:12.035Z,12.39
2019-02-16T10:05:12.023Z,12.64
2019-02-16T10:06:12.023Z,12.75
2019-02-16T10:07:12.002Z,13.03
2019-02-16T10:08:12.010Z,13.15
2019-02-16T10:09:11.981Z,13.45
2019-02-16T10:10:11.970Z,13.38
2019-02-16T10:11:11.959Z,13.42
2019-02-16T10:12:11.951Z,13.73
2019-02-16T10:13:12.010Z,13.78
2019-02-16T10:14:12.098Z,13.95
2019-02-16T10:15:11.924Z,14.09
2019-02-16T10:16:11.904Z,14.55
2019-02-16T10:17:11.887Z,14.83
2019-02-16T10:18:11.916Z,15.19
2019-02-16T10:19:11.875Z,15.44
2019-02-16T10:20:11.903Z,15.90
2019-02-16T10:21:11.841Z,16.05
2019-02-16T10:22:11.836Z,16.00
2019-02-16T10:23:11.846Z,16.08
2019-02-16T10:24:17.635Z,16.38
2019-02-16T10:25:12.835Z,16.61
2019-02-16T10:26:11.872Z,16.70
2019-02-16T10:27:11.786Z,16.96
2019-02-16T10:28:11.795Z,17.19
2019-02-16T10:29:11.761Z,17.03
2019-02-16T10:30:11.744Z,17.34
2019-02-16T10:31:11.735Z,16.89
2019-02-16T10:32:11.721Z,16.97
2019-02-16T10:33:11.725Z,16.94
2019-02-16T10:34:11.703Z,17.00
2019-02-16T10:35:11.687Z,17.07
2019-02-16T10:36:11.694Z,17.38
2019-02-16T10:37:11.666Z,17.34
2019-02-16T10:38:11.685Z,17.84
2019-02-16T10:39:11.647Z,18.25
2019-02-16T10:40:11.641Z,18.76
2019-02-16T10:41:11.636Z,19.43
2019-02-16T10:42:11.612Z,19.18
2019-02-16T10:43:11.624Z,18.91
2019-02-16T10:44:11.598Z,18.85
2019-02-16T10:45:11.574Z,19.14
2019-02-16T10:46:11.584Z,19.22
2019-02-16T10:47:11.545Z,19.46
2019-02-16T10:48:11.549Z,19.86
2019-02-16T10:49:11.555Z,20.36
2019-02-16T10:50:11.530Z,19.91
2019-02-16T10:51:11.515Z,19.46
2019-02-16T10:52:11.504Z,19.54
2019-02-16T10:53:11.490Z,19.59
2019-02-16T10:54:11.493Z,19.68
2019-02-16T10:55:11.465Z,19.87
2019-02-16T10:56:11.471Z,20.33
2019-02-16T10:57:11.445Z,20.61
2019-02-16T10:58:11.431Z,20.59
2019-02-16T10:59:11.416Z,20.62
2019-02-16T11:00:11.406Z,20.57
2019-02-16T11:01:11.409Z,20.16
2019-02-16T11:02:11.389Z,19.88
2019-02-16T11:03:11.378Z,20.21
2019-02-16T11:04:11.379Z,20.24
2019-02-16T11:05:11.404Z,20.55
2019-02-16T11:06:11.340Z,20.51
2019-02-16T11:07:11.331Z,20.38
2019-02-16T11:08:11.315Z,20.62
2019-02-16T11:09:11.327Z,21.16
2019-02-16T11:10:11.294Z,21.10
2019-02-16T11:11:11.284Z,21.37
2019-02-16T11:12:11.270Z,21.52
2019-02-16T11:13:11.260Z,21.84
2019-02-16T11:14:11.351Z,22.42
2019-02-16T11:15:11.237Z,22.45
2019-02-16T11:16:11.232Z,21.83
2019-02-16T11:17:11.224Z,21.84
2019-02-16T11:18:11.203Z,21.79
2019-02-16T11:19:11.210Z,22.07
2019-02-16T11:20:11.186Z,22.27
2019-02-16T11:21:11.174Z,22.15
2019-02-16T11:22:11.162Z,22.75
2019-02-16T11:23:11.165Z,23.40
2019-02-16T11:24:11.794Z,23.60
2019-02-16T11:25:11.126Z,23.38
2019-02-16T11:26:11.196Z,23.76
2019-02-16T11:27:11.119Z,24.25
2019-02-16T11:28:11.196Z,24.32
2019-02-16T11:29:11.325Z,24.84
2019-02-16T11:30:11.079Z,25.43
2019-02-16T11:31:11.060Z,25.57
2019-02-16T11:32:11.064Z,25.92
2019-02-16T11:33:11.037Z,25.91
2019-02-16T11:34:11.067Z,25.82
2019-02-16T11:35:11.044Z,25.55
2019-02-16T11:36:11.008Z,24.87
2019-02-16T11:37:10.999Z,24.98
2019-02-16T11:38:10.990Z,25.33
2019-02-16T11:39:10.972Z,24.88
2019-02-16T11:40:10.980Z,24.98
2019-02-16T11:41:18.690Z,25.06
2019-02-16T11:42:11.941Z,25.62
2019-02-16T11:43:10.929Z,24.80
2019-02-16T11:44:10.938Z,24.31
2019-02-16T11:45:10.959Z,24.34
2019-02-16T11:46:10.908Z,24.85
2019-02-16T11:47:10.893Z,25.21
2019-02-16T11:48:10.883Z,25.05
2019-02-16T11:49:10.870Z,24.99
2019-02-16T11:50:10.882Z,25.06
2019-02-16T11:51:10.847Z,25.36
2019-02-16T11:52:10.852Z,25.87
2019-02-16T11:53:10.869Z,25.85
2019-02-16T11:54:10.823Z,25.76
2019-02-16T11:55:10.830Z,25.47
2019-02-16T11:56:10.801Z,25.17
2019-02-16T11:57:10.784Z,25.27
2019-02-16T11:58:10.782Z,25.51
2019-02-16T11:59:10.761Z,25.47
2019-02-16T12:00:10.771Z,25.61
2019-02-16T12:01:10.738Z,25.47
2019-02-16T12:02:10.734Z,24.46
2019-02-16T12:03:10.744Z,24.25
2019-02-16T12:04:10.722Z,24.15
2019-02-16T12:05:10.751Z,24.09
2019-02-16T12:06:10.696Z,24.35
2019-02-16T12:07:10.695Z,24.83
2019-02-16T12:08:10.671Z,25.18
2019-02-16T12:09:10.663Z,25.23
2019-02-16T12:10:10.672Z,25.18
2019-02-16T12:11:10.635Z,25.46
2019-02-16T12:12:10.626Z,25.24
2019-02-16T12:13:10.634Z,25.18
2019-02-16T12:14:10.609Z,25.38
2019-02-16T12:15:10.639Z,25.10
2019-02-16T12:16:10.595Z,25.24
2019-02-16T12:17:10.605Z,25.17
2019-02-16T12:18:10.562Z,25.23
2019-02-16T12:19:10.553Z,24.77
2019-02-16T12:20:10.595Z,24.67
2019-02-16T12:21:11.266Z,24.68
2019-02-16T12:22:10.532Z,25.09
2019-02-16T12:23:10.511Z,24.65
2019-02-16T12:24:10.505Z,24.21
2019-02-16T12:25:10.488Z,23.70
2019-02-16T12:26:10.503Z,23.57
2019-02-16T12:27:10.518Z,23.17
2019-02-16T12:28:10.468Z,22.64
2019-02-16T12:29:10.528Z,22.25
2019-02-16T12:30:10.459Z,21.92
2019-02-16T12:31:10.426Z,21.79
2019-02-16T12:32:10.436Z,21.62
2019-02-16T12:33:10.411Z,21.35
2019-02-16T12:34:10.407Z,21.53
2019-02-16T12:35:10.903Z,21.59
2019-02-16T12:36:10.364Z,21.52
2019-02-16T12:37:10.391Z,21.43
2019-02-16T12:38:10.344Z,21.56
2019-02-16T12:39:10.344Z,22.03
2019-02-16T12:40:10.371Z,22.10
2019-02-16T12:41:10.306Z,22.12
2019-02-16T12:42:10.325Z,21.94
2019-02-16T12:44:11.497Z,21.90
2019-02-16T12:45:10.311Z,21.74
2019-02-16T12:46:10.287Z,22.30
2019-02-16T12:47:10.304Z,22.27
2019-02-16T12:48:10.247Z,22.06
2019-02-16T12:49:10.248Z,22.07
2019-02-16T12:50:10.228Z,22.57
2019-02-16T12:51:10.240Z,22.97
2019-02-16T12:52:10.252Z,23.42
2019-02-16T12:53:10.191Z,24.37
2019-02-16T12:54:10.177Z,25.47
2019-02-16T12:55:14.640Z,26.10
2019-02-16T12:56:10.179Z,27.03
2019-02-16T12:57:10.131Z,27.41
2019-02-16T12:58:10.138Z,27.36
2019-02-16T12:59:10.111Z,26.43
2019-02-16T13:00:10.109Z,25.35
2019-02-16T13:01:10.102Z,23.80
2019-02-16T13:02:10.532Z,22.42
2019-02-16T13:03:10.086Z,21.72
2019-02-16T13:04:10.055Z,21.03
2019-02-16T13:05:10.046Z,20.55
2019-02-16T13:06:10.057Z,20.20
2019-02-16T13:08:11.406Z,19.41
2019-02-16T13:09:10.000Z,18.88
2019-02-16T13:10:09.995Z,18.50
2019-02-16T13:11:10.088Z,18.11
2019-02-16T13:12:09.975Z,17.75
2019-02-16T13:13:09.958Z,17.54